Time;durP1;ratioP1;P1;durP2;ratioP2;P2;SDS_P1;SDS_P2;PMS_P1;PMS_P2;Temp;Humidity;BMP_temperature;BMP_pressure;BME280_temperature;BME280_humidity;BME280_pressure;Samples;Min_cycle;Max_cycle;Signal;HPM_P1;HPM_P2
2023/04/12 00:01:13;;;;;;;;;;;8.00;99.90;;;;;;5017910;28;19927;-76
2023/04/12 00:03:38;;;;;;;;;;;8.00;99.90;;;;;;5036708;28;20381;-76
2023/04/12 00:06:06;;;;;;;;;;;8.00;99.90;;;;;;5036574;28;19943;-76
2023/04/12 00:08:31;;;;;;;;;;;8.10;99.90;;;;;;5032251;28;19960;-76
2023/04/12 00:10:58;;;;;;;;;;;8.10;99.90;;;;;;5019993;28;20439;-76
2023/04/12 00:13:24;;;;;;;;;;;8.20;99.90;;;;;;5035028;28;19975;-76
2023/04/12 00:15:49;;;;;;;;;;;8.20;99.90;;;;;;5035321;28;20317;-76
2023/04/12 00:18:15;;;;;;;;;;;8.30;99.90;;;;;;5033813;28;20305;-77
2023/04/12 00:20:42;;;;;;;;;;;8.30;99.90;;;;;;5037963;28;19929;-76
2023/04/12 00:23:11;;;;;;;;;;;8.40;99.90;;;;;;5019946;28;19936;-77
2023/04/12 00:25:38;;;;;;;;;;;8.40;99.90;;;;;;5035799;28;20464;-76
2023/04/12 00:28:04;;;;;;;;;;;8.50;99.90;;;;;;5036979;28;19964;-76
2023/04/12 00:30:29;;;;;;;;;;;8.50;99.90;;;;;;5019699;28;19921;-77
2023/04/12 00:32:55;;;;;;;;;;;8.50;99.90;;;;;;5038135;28;20047;-76
2023/04/12 00:35:20;;;;;;;;;;;8.60;99.90;;;;;;5035681;28;20373;-76
2023/04/12 00:37:46;;;;;;;;;;;8.60;99.90;;;;;;5031404;28;20323;-76
2023/04/12 00:40:12;;;;;;;;;;;8.70;99.90;;;;;;5020187;28;20013;-76
2023/04/12 00:42:37;;;;;;;;;;;8.70;99.90;;;;;;5032297;28;19916;-76
2023/04/12 00:45:03;;;;;;;;;;;8.80;99.90;;;;;;5020401;28;19928;-76
2023/04/12 00:47:29;;;;;;;;;;;8.80;99.90;;;;;;5032943;28;19943;-76
2023/04/12 00:49:55;;;;;;;;;;;8.80;99.90;;;;;;5038562;28;19921;-77
2023/04/12 00:52:21;;;;;;;;;;;8.80;99.90;;;;;;5037889;28;19925;-77
2023/04/12 00:54:46;;;;;;;;;;;8.90;99.90;;;;;;5037464;28;19924;-76
2023/04/12 00:57:12;;;;;;;;;;;8.80;99.90;;;;;;5022671;28;19921;-76
2023/04/12 00:59:38;;;;;;;;;;;8.90;99.90;;;;;;5018474;28;19917;-77
2023/04/12 01:02:03;;;;;;;;;;;8.90;99.90;;;;;;5035640;28;19952;-76
2023/04/12 01:04:29;;;;;;;;;;;8.90;99.90;;;;;;5022898;28;19946;-76
2023/04/12 01:07:04;;;;;;;;;;;8.90;99.90;;;;;;5036615;28;19963;-76
2023/04/12 01:09:47;;;;;;;;;;;8.90;99.90;;;;;;5040783;28;20321;-76
2023/04/12 01:12:13;;;;;;;;;;;8.90;99.90;;;;;;5033774;28;19921;-76
2023/04/12 01:14:56;;;;;;;;;;;8.90;99.90;;;;;;5038802;28;19942;-76
2023/04/12 01:17:26;;;;;;;;;;;8.90;99.90;;;;;;5038236;28;20380;-76
2023/04/12 01:19:56;;;;;;;;;;;8.90;99.90;;;;;;5038189;28;19928;-76
2023/04/12 01:22:25;;;;;;;;;;;9.00;99.90;;;;;;5028982;28;19929;-75
2023/04/12 01:24:54;;;;;;;;;;;8.90;99.90;;;;;;5039144;28;22082;-76
2023/04/12 01:27:36;;;;;;;;;;;8.90;99.90;;;;;;5039342;28;19917;-76
2023/04/12 01:30:02;;;;;;;;;;;9.00;99.90;;;;;;5041396;28;20404;-76
2023/04/12 01:32:29;;;;;;;;;;;9.00;99.90;;;;;;5042463;28;19916;-76
2023/04/12 01:34:56;;;;;;;;;;;9.00;99.90;;;;;;5040878;28;19949;-76
2023/04/12 01:37:22;;;;;;;;;;;9.00;99.90;;;;;;5019917;28;19928;-76
2023/04/12 01:39:48;;;;;;;;;;;9.20;99.90;;;;;;5024365;28;19929;-76
2023/04/12 01:42:20;;;;;;;;;;;9.10;99.90;;;;;;5024995;28;19974;-75
2023/04/12 01:44:45;;;;;;;;;;;9.20;99.90;;;;;;5038504;28;19979;-76
2023/04/12 01:47:11;;;;;;;;;;;9.30;99.90;;;;;;5041691;28;20285;-75
2023/04/12 01:49:42;;;;;;;;;;;9.30;99.90;;;;;;5035535;28;19924;-76
2023/04/12 01:52:11;;;;;;;;;;;9.30;99.90;;;;;;5037056;28;20311;-75
2023/04/12 01:54:38;;;;;;;;;;;9.50;99.90;;;;;;5039513;28;19921;-76
2023/04/12 01:57:04;;;;;;;;;;;9.50;99.90;;;;;;5036576;28;19920;-76
2023/04/12 01:59:35;;;;;;;;;;;9.50;99.90;;;;;;5030375;28;20154;-75
2023/04/12 02:02:01;;;;;;;;;;;9.50;99.90;;;;;;5026751;28;20441;-76
2023/04/12 02:04:27;;;;;;;;;;;9.40;99.90;;;;;;5029605;28;19927;-76
2023/04/12 02:06:53;;;;;;;;;;;9.40;99.90;;;;;;5023786;28;19929;-76
2023/04/12 02:09:18;;;;;;;;;;;9.40;99.90;;;;;;4997564;28;19962;-76
2023/04/12 02:11:47;;;;;;;;;;;9.40;99.90;;;;;;5037383;28;19924;-76
2023/04/12 02:14:14;;;;;;;;;;;9.30;99.90;;;;;;5013016;28;19920;-75
2023/04/12 02:16:41;;;;;;;;;;;9.30;99.90;;;;;;5011097;28;19920;-76
2023/04/12 02:19:07;;;;;;;;;;;9.30;99.90;;;;;;5031477;28;20340;-76
2023/04/12 02:21:42;;;;;;;;;;;9.20;99.90;;;;;;5034864;28;19921;-76
2023/04/12 02:24:08;;;;;;;;;;;9.30;99.90;;;;;;5021976;28;19928;-76
2023/04/12 02:26:35;;;;;;;;;;;9.20;99.90;;;;;;5029085;28;20588;-75
2023/04/12 02:29:00;;;;;;;;;;;9.20;99.90;;;;;;5022910;28;19931;-76
2023/04/12 02:31:26;;;;;;;;;;;9.10;99.90;;;;;;5043580;28;20301;-76
2023/04/12 02:33:52;;;;;;;;;;;9.10;99.90;;;;;;5041000;28;19927;-76
2023/04/12 02:36:17;;;;;;;;;;;9.10;99.90;;;;;;5039695;28;20400;-76
2023/04/12 02:38:43;;;;;;;;;;;9.10;99.90;;;;;;5004641;28;19937;-76
2023/04/12 02:41:09;;;;;;;;;;;9.10;99.90;;;;;;5009257;28;19947;-76
2023/04/12 02:43:34;;;;;;;;;;;9.10;99.90;;;;;;5040964;28;19929;-76
2023/04/12 02:46:00;;;;;;;;;;;9.10;99.90;;;;;;5034035;28;19948;-76
2023/04/12 02:48:25;;;;;;;;;;;9.00;99.90;;;;;;5026218;28;19925;-76
2023/04/12 02:50:51;;;;;;;;;;;9.10;99.90;;;;;;5039039;28;19921;-76
2023/04/12 02:53:16;;;;;;;;;;;9.00;99.90;;;;;;5024992;28;19917;-75
2023/04/12 02:55:43;;;;;;;;;;;9.00;99.90;;;;;;5008290;28;19921;-76
2023/04/12 02:58:09;;;;;;;;;;;9.00;99.90;;;;;;5026090;28;19927;-76
2023/04/12 03:00:34;;;;;;;;;;;9.00;99.90;;;;;;5041034;28;19920;-76
2023/04/12 03:03:01;;;;;;;;;;;9.00;99.90;;;;;;5022076;28;20399;-76
2023/04/12 03:05:27;;;;;;;;;;;9.00;99.90;;;;;;5033322;28;20310;-76
2023/04/12 03:07:53;;;;;;;;;;;9.00;99.90;;;;;;5026786;28;19916;-76
2023/04/12 03:10:18;;;;;;;;;;;8.90;99.90;;;;;;5023785;28;19951;-76
2023/04/12 03:12:44;;;;;;;;;;;8.90;99.90;;;;;;5025391;28;19921;-75
2023/04/12 03:15:09;;;;;;;;;;;9.00;99.90;;;;;;5039864;28;19971;-76
2023/04/12 03:17:35;;;;;;;;;;;9.00;99.90;;;;;;5032833;28;19917;-77
2023/04/12 03:20:09;;;;;;;;;;;9.00;99.90;;;;;;5035676;28;19920;-76
2023/04/12 03:22:35;;;;;;;;;;;9.00;99.90;;;;;;5022036;28;19921;-77
2023/04/12 03:25:02;;;;;;;;;;;9.00;99.90;;;;;;5031850;28;19930;-76
2023/04/12 03:27:28;;;;;;;;;;;9.00;99.90;;;;;;5025019;28;19917;-75
2023/04/12 03:29:54;;;;;;;;;;;9.00;99.90;;;;;;5027737;28;20700;-77
2023/04/12 03:32:20;;;;;;;;;;;9.00;99.90;;;;;;5007011;28;20013;-77
2023/04/12 03:34:46;;;;;;;;;;;9.00;99.90;;;;;;5034782;28;19948;-77
2023/04/12 03:37:12;;;;;;;;;;;9.00;99.90;;;;;;5038597;28;19924;-76
2023/04/12 03:39:37;;;;;;;;;;;9.00;99.90;;;;;;5032216;28;19924;-77
2023/04/12 03:42:05;;;;;;;;;;;9.00;99.90;;;;;;5019503;28;19920;-76
2023/04/12 03:44:31;;;;;;;;;;;9.10;99.90;;;;;;5030137;28;19931;-76
2023/04/12 03:46:57;;;;;;;;;;;9.10;99.90;;;;;;5015021;28;20273;-76
2023/04/12 03:49:22;;;;;;;;;;;9.10;99.90;;;;;;5033638;28;19920;-77
2023/04/12 03:51:49;;;;;;;;;;;9.10;99.90;;;;;;5037490;28;19920;-76
2023/04/12 03:54:15;;;;;;;;;;;9.10;99.90;;;;;;5037289;28;19925;-76
2023/04/12 03:56:40;;;;;;;;;;;9.10;99.90;;;;;;5037461;28;20381;-78
2023/04/12 03:59:06;;;;;;;;;;;9.10;99.90;;;;;;5037450;28;20001;-77
2023/04/12 04:01:35;;;;;;;;;;;9.10;99.90;;;;;;5037711;28;19999;-77
2023/04/12 04:04:01;;;;;;;;;;;9.10;99.90;;;;;;5022476;28;20007;-77
2023/04/12 04:06:28;;;;;;;;;;;9.10;99.90;;;;;;5035706;28;20026;-76
2023/04/12 04:08:55;;;;;;;;;;;9.10;99.90;;;;;;5043062;28;19920;-76
2023/04/12 04:11:20;;;;;;;;;;;9.10;99.90;;;;;;5036575;28;20014;-76
2023/04/12 04:13:46;;;;;;;;;;;9.10;99.90;;;;;;5039974;28;19959;-76
2023/04/12 04:16:11;;;;;;;;;;;9.10;99.90;;;;;;5036642;28;19920;-77
2023/04/12 04:18:37;;;;;;;;;;;9.10;99.90;;;;;;5018184;28;19920;-77
2023/04/12 04:21:02;;;;;;;;;;;9.10;99.90;;;;;;5036328;28;20495;-77
2023/04/12 04:23:30;;;;;;;;;;;9.00;99.90;;;;;;5020631;28;19944;-77
2023/04/12 04:25:56;;;;;;;;;;;9.10;99.90;;;;;;5020922;28;19916;-74
2023/04/12 04:28:22;;;;;;;;;;;9.00;99.90;;;;;;5036138;28;19920;-75
2023/04/12 04:30:47;;;;;;;;;;;9.00;99.90;;;;;;5033422;28;20364;-76
2023/04/12 04:33:14;;;;;;;;;;;9.00;99.90;;;;;;5019725;28;19956;-76
2023/04/12 04:35:41;;;;;;;;;;;9.00;99.90;;;;;;5035377;28;19934;-76
2023/04/12 04:38:06;;;;;;;;;;;9.00;99.90;;;;;;5017758;28;19921;-75
2023/04/12 04:40:32;;;;;;;;;;;8.90;99.90;;;;;;5015007;28;19928;-77
2023/04/12 04:42:58;;;;;;;;;;;8.90;99.90;;;;;;5036544;28;20451;-76
2023/04/12 04:45:27;;;;;;;;;;;8.90;99.90;;;;;;5035229;28;19921;-76
2023/04/12 04:47:53;;;;;;;;;;;8.80;99.90;;;;;;5036668;28;20031;-75
2023/04/12 04:50:20;;;;;;;;;;;8.80;99.90;;;;;;5035361;28;20023;-75
2023/04/12 04:52:47;;;;;;;;;;;8.80;99.90;;;;;;5038014;28;19995;-75
2023/04/12 04:55:13;;;;;;;;;;;8.80;99.90;;;;;;5030220;28;20409;-75
2023/04/12 04:57:39;;;;;;;;;;;8.80;99.90;;;;;;5016926;28;19968;-74
2023/04/12 05:00:09;;;;;;;;;;;8.80;99.90;;;;;;5036612;28;19921;-76
2023/04/12 05:02:35;;;;;;;;;;;8.80;99.90;;;;;;5010149;28;19983;-77
2023/04/12 05:05:03;;;;;;;;;;;8.70;99.90;;;;;;5033036;28;20394;-76
2023/04/12 05:07:28;;;;;;;;;;;8.70;99.90;;;;;;5019968;28;19932;-77
2023/04/12 05:09:54;;;;;;;;;;;8.70;99.90;;;;;;5022848;28;19929;-76
2023/04/12 05:12:20;;;;;;;;;;;8.70;99.90;;;;;;5001880;28;19916;-76
2023/04/12 05:14:45;;;;;;;;;;;8.60;99.90;;;;;;4988415;28;19991;-77
2023/04/12 05:17:11;;;;;;;;;;;8.60;99.90;;;;;;5002374;28;19920;-76
2023/04/12 05:19:36;;;;;;;;;;;8.60;99.90;;;;;;5031216;28;19929;-76
2023/04/12 05:22:02;;;;;;;;;;;8.60;99.90;;;;;;5010879;28;20010;-74
2023/04/12 05:24:28;;;;;;;;;;;8.60;99.90;;;;;;5007242;28;21276;-76
2023/04/12 05:26:53;;;;;;;;;;;8.60;99.90;;;;;;5032957;28;19920;-76
2023/04/12 05:29:19;;;;;;;;;;;8.60;99.90;;;;;;5025445;28;19971;-76
2023/04/12 05:31:44;;;;;;;;;;;8.60;99.90;;;;;;5015667;28;19968;-77
2023/04/12 05:34:10;;;;;;;;;;;8.60;99.90;;;;;;4986298;28;20329;-77
2023/04/12 05:36:35;;;;;;;;;;;8.60;99.90;;;;;;5024386;28;19928;-76
2023/04/12 05:39:01;;;;;;;;;;;8.70;99.90;;;;;;5015426;28;20399;-76
2023/04/12 05:41:26;;;;;;;;;;;8.70;99.90;;;;;;5022763;28;20328;-77
2023/04/12 05:43:52;;;;;;;;;;;8.70;99.90;;;;;;5007591;28;20003;-77
2023/04/12 05:46:18;;;;;;;;;;;8.60;99.90;;;;;;5018624;28;20252;-75
2023/04/12 05:48:43;;;;;;;;;;;8.60;99.90;;;;;;5014747;28;19924;-75
2023/04/12 05:51:09;;;;;;;;;;;8.60;99.90;;;;;;5017762;28;19921;-80
2023/04/12 05:53:34;;;;;;;;;;;8.60;99.90;;;;;;5010951;28;19925;-78
2023/04/12 05:56:00;;;;;;;;;;;8.60;99.90;;;;;;5021958;28;19925;-79
2023/04/12 05:58:26;;;;;;;;;;;8.60;99.90;;;;;;5000046;28;20017;-75
2023/04/12 06:00:53;;;;;;;;;;;8.60;99.90;;;;;;4996060;28;19968;-78
2023/04/12 06:03:18;;;;;;;;;;;8.60;99.90;;;;;;5008355;28;19927;-78
2023/04/12 06:05:44;;;;;;;;;;;8.60;99.90;;;;;;5019134;28;19944;-77
2023/04/12 06:08:11;;;;;;;;;;;8.60;99.90;;;;;;5027046;28;19921;-78
2023/04/12 06:10:38;;;;;;;;;;;8.60;99.90;;;;;;5016749;28;20001;-79
2023/04/12 06:13:04;;;;;;;;;;;8.60;99.90;;;;;;5031353;28;20007;-79
2023/04/12 06:15:30;;;;;;;;;;;8.60;99.90;;;;;;5018993;28;20122;-79
2023/04/12 06:17:58;;;;;;;;;;;8.60;99.90;;;;;;5020891;28;19921;-79
2023/04/12 06:20:24;;;;;;;;;;;8.60;99.90;;;;;;5026991;28;20362;-79
2023/04/12 06:22:49;;;;;;;;;;;8.50;99.90;;;;;;5031794;28;19924;-79
2023/04/12 06:25:15;;;;;;;;;;;8.60;99.90;;;;;;5020541;28;20423;-79
2023/04/12 06:27:41;;;;;;;;;;;8.60;99.90;;;;;;5037310;28;20341;-79
2023/04/12 06:30:07;;;;;;;;;;;8.60;99.90;;;;;;5038597;28;20027;-80
2023/04/12 06:32:32;;;;;;;;;;;8.60;99.90;;;;;;5036193;28;20289;-80
2023/04/12 06:34:58;;;;;;;;;;;8.60;99.90;;;;;;5020794;28;19920;-80
2023/04/12 06:37:24;;;;;;;;;;;8.60;99.90;;;;;;5037804;28;19920;-79
2023/04/12 06:39:49;;;;;;;;;;;8.60;99.90;;;;;;5020585;28;19975;-80
2023/04/12 06:42:16;;;;;;;;;;;8.60;99.90;;;;;;5031074;28;19928;-80
2023/04/12 06:44:41;;;;;;;;;;;8.60;99.90;;;;;;5039858;28;19920;-80
2023/04/12 06:47:07;;;;;;;;;;;8.60;99.90;;;;;;5039237;28;19921;-80
2023/04/12 06:49:32;;;;;;;;;;;8.60;99.90;;;;;;5022255;28;19921;-79
2023/04/12 06:51:58;;;;;;;;;;;8.60;99.90;;;;;;5020838;28;19920;-82
2023/04/12 06:54:24;;;;;;;;;;;8.60;99.90;;;;;;5040182;28;19921;-81
2023/04/12 06:56:49;;;;;;;;;;;8.60;99.90;;;;;;5018253;28;20008;-81
2023/04/12 06:59:15;;;;;;;;;;;8.70;99.90;;;;;;5021779;28;20350;-79
2023/04/12 07:01:41;;;;;;;;;;;8.60;99.90;;;;;;5022001;28;20281;-81
2023/04/12 07:04:06;;;;;;;;;;;8.60;99.90;;;;;;5040919;28;19917;-82
2023/04/12 07:06:32;;;;;;;;;;;8.60;99.90;;;;;;5020323;28;19917;-81
2023/04/12 07:08:57;;;;;;;;;;;8.60;99.90;;;;;;5030801;28;19921;-82
2023/04/12 07:11:23;;;;;;;;;;;8.70;99.90;;;;;;5011004;28;20456;-83
2023/04/12 07:13:48;;;;;;;;;;;8.60;99.90;;;;;;5033945;28;19917;-82
2023/04/12 07:16:14;;;;;;;;;;;8.60;99.90;;;;;;5015078;28;20392;-82
2023/04/12 07:18:40;;;;;;;;;;;8.60;99.90;;;;;;5014287;28;20282;-83
2023/04/12 07:21:05;;;;;;;;;;;8.70;99.90;;;;;;5017053;28;20297;-82
2023/04/12 07:23:31;;;;;;;;;;;8.70;99.90;;;;;;4994946;28;20432;-82
2023/04/12 07:26:00;;;;;;;;;;;8.70;99.90;;;;;;5012071;28;19924;-83
2023/04/12 07:28:26;;;;;;;;;;;8.80;99.90;;;;;;5015075;28;19933;-82
2023/04/12 07:30:52;;;;;;;;;;;8.70;99.90;;;;;;5029836;28;19998;-81
2023/04/12 07:33:17;;;;;;;;;;;8.70;99.90;;;;;;5031030;28;19920;-81
2023/04/12 07:35:43;;;;;;;;;;;8.70;99.90;;;;;;5031151;28;19923;-82
2023/04/12 07:38:09;;;;;;;;;;;8.70;99.90;;;;;;5013570;28;19920;-82
2023/04/12 07:40:35;;;;;;;;;;;8.70;99.90;;;;;;5014495;28;19924;-82
2023/04/12 07:43:00;;;;;;;;;;;8.70;99.90;;;;;;4998402;28;19924;-83
2023/04/12 07:45:26;;;;;;;;;;;8.80;99.90;;;;;;5013190;28;19924;-83
2023/04/12 07:47:51;;;;;;;;;;;8.70;99.90;;;;;;5014648;28;19971;-82
2023/04/12 07:50:17;;;;;;;;;;;8.80;99.90;;;;;;5031685;28;20187;-83
2023/04/12 07:52:42;;;;;;;;;;;8.70;99.90;;;;;;5015092;28;19921;-82
2023/04/12 07:55:09;;;;;;;;;;;8.70;99.90;;;;;;5032567;28;19917;-82
2023/04/12 07:57:34;;;;;;;;;;;8.70;99.90;;;;;;5030252;28;19920;-83
2023/04/12 08:00:00;;;;;;;;;;;8.70;99.90;;;;;;5031823;28;19921;-82
2023/04/12 08:02:26;;;;;;;;;;;8.80;99.90;;;;;;5014716;28;19929;-82
2023/04/12 08:04:54;;;;;;;;;;;8.80;99.90;;;;;;5009551;28;19916;-82
2023/04/12 08:07:23;;;;;;;;;;;8.70;99.90;;;;;;5008633;28;19929;-82
2023/04/12 08:09:49;;;;;;;;;;;8.80;99.90;;;;;;5007763;28;19955;-82
2023/04/12 08:12:15;;;;;;;;;;;8.80;99.90;;;;;;5012684;28;19928;-82
2023/04/12 08:14:41;;;;;;;;;;;8.80;99.90;;;;;;5012197;28;19929;-82
2023/04/12 08:17:06;;;;;;;;;;;8.90;99.90;;;;;;5013779;28;19920;-82
2023/04/12 08:19:32;;;;;;;;;;;8.80;99.90;;;;;;5011293;28;19921;-84
2023/04/12 08:21:58;;;;;;;;;;;8.90;99.90;;;;;;5012191;28;19948;-82
2023/04/12 08:24:23;;;;;;;;;;;8.90;99.90;;;;;;5013624;28;19927;-82
2023/04/12 08:26:50;;;;;;;;;;;8.90;99.90;;;;;;5029828;28;20016;-82
2023/04/12 08:29:15;;;;;;;;;;;9.00;99.90;;;;;;4997229;28;19921;-83
2023/04/12 08:31:41;;;;;;;;;;;9.00;99.90;;;;;;5012606;28;19983;-83
2023/04/12 08:34:06;;;;;;;;;;;9.10;99.90;;;;;;5010393;28;19924;-82
2023/04/12 08:36:32;;;;;;;;;;;9.10;99.90;;;;;;5010679;28;19920;-82
2023/04/12 08:39:01;;;;;;;;;;;9.10;99.90;;;;;;5014894;28;20577;-82
2023/04/12 08:41:26;;;;;;;;;;;9.10;99.90;;;;;;5010796;28;19931;-82
2023/04/12 08:43:54;;;;;;;;;;;9.20;99.90;;;;;;4999801;28;19929;-81
2023/04/12 08:46:20;;;;;;;;;;;9.20;99.90;;;;;;5009989;28;20094;-83
2023/04/12 08:48:48;;;;;;;;;;;9.30;99.90;;;;;;5020829;28;19921;-82
2023/04/12 08:51:15;;;;;;;;;;;9.30;99.90;;;;;;5013099;28;19921;-83
2023/04/12 08:53:40;;;;;;;;;;;9.30;99.90;;;;;;5013959;28;19925;-82
2023/04/12 08:56:09;;;;;;;;;;;9.30;99.90;;;;;;5027526;28;19971;-82
2023/04/12 08:58:35;;;;;;;;;;;9.30;99.90;;;;;;5018107;28;19924;-81
2023/04/12 09:01:01;;;;;;;;;;;9.40;99.90;;;;;;5014915;28;19920;-82
2023/04/12 09:03:28;;;;;;;;;;;9.30;99.90;;;;;;5020976;28;19935;-82
2023/04/12 09:05:54;;;;;;;;;;;9.30;99.90;;;;;;5013926;28;19975;-81
2023/04/12 09:08:19;;;;;;;;;;;9.30;99.90;;;;;;5009507;28;20400;-82
2023/04/12 09:10:45;;;;;;;;;;;9.30;99.90;;;;;;5013173;28;19960;-82
2023/04/12 09:13:10;;;;;;;;;;;9.20;99.90;;;;;;5010736;28;19929;-81
2023/04/12 09:15:46;;;;;;;;;;;9.30;99.90;;;;;;5011273;28;19928;-80
2023/04/12 09:18:12;;;;;;;;;;;9.30;99.90;;;;;;5004988;28;19933;-82
2023/04/12 09:20:38;;;;;;;;;;;9.30;99.90;;;;;;5012515;28;19921;-80
2023/04/12 09:23:17;;;;;;;;;;;9.20;99.90;;;;;;5014011;28;19975;-82
2023/04/12 09:25:48;;;;;;;;;;;9.20;99.90;;;;;;5016467;28;19921;-81
2023/04/12 09:28:19;;;;;;;;;;;9.30;99.90;;;;;;5012660;28;19979;-81
2023/04/12 09:30:50;;;;;;;;;;;9.20;99.90;;;;;;5027765;28;20178;-82
2023/04/12 09:33:20;;;;;;;;;;;9.30;99.90;;;;;;4997201;28;19928;-81
2023/04/12 09:35:46;;;;;;;;;;;9.40;99.90;;;;;;5017027;28;19928;-81
2023/04/12 09:38:11;;;;;;;;;;;9.30;99.90;;;;;;5015728;28;20599;-81
2023/04/12 09:40:37;;;;;;;;;;;9.40;99.90;;;;;;5002414;28;19967;-82
2023/04/12 09:43:03;;;;;;;;;;;9.40;99.90;;;;;;5000614;28;19920;-81
2023/04/12 09:45:30;;;;;;;;;;;9.50;99.90;;;;;;5011673;28;20376;-81
2023/04/12 09:47:56;;;;;;;;;;;9.50;99.90;;;;;;5016127;28;19917;-80
2023/04/12 09:50:27;;;;;;;;;;;9.60;99.90;;;;;;5016736;28;19948;-81
2023/04/12 09:52:56;;;;;;;;;;;9.60;99.90;;;;;;5035458;28;20353;-81
2023/04/12 09:55:23;;;;;;;;;;;9.60;99.90;;;;;;5012102;28;19928;-80
2023/04/12 09:57:50;;;;;;;;;;;9.60;99.90;;;;;;5013364;28;19979;-80
2023/04/12 10:00:18;;;;;;;;;;;9.70;99.90;;;;;;5014870;28;19920;-80
2023/04/12 10:02:46;;;;;;;;;;;10.10;99.90;;;;;;5013034;28;20536;-81
2023/04/12 10:05:13;;;;;;;;;;;10.20;99.90;;;;;;5011038;28;19921;-81
2023/04/12 10:07:42;;;;;;;;;;;10.30;99.90;;;;;;5031558;28;19917;-81
2023/04/12 10:10:08;;;;;;;;;;;10.10;99.90;;;;;;5026767;28;19984;-81
2023/04/12 10:12:36;;;;;;;;;;;10.20;99.90;;;;;;5018130;28;19920;-81
2023/04/12 10:15:11;;;;;;;;;;;10.20;99.90;;;;;;5008848;28;20011;-80
2023/04/12 10:17:44;;;;;;;;;;;10.40;99.90;;;;;;5015773;28;19921;-82
2023/04/12 10:20:10;;;;;;;;;;;10.40;99.90;;;;;;5012951;28;19955;-80
2023/04/12 10:22:49;;;;;;;;;;;10.60;99.90;;;;;;5023882;28;19946;-81
2023/04/12 10:25:16;;;;;;;;;;;10.80;99.90;;;;;;5022315;28;19920;-81
2023/04/12 10:27:42;;;;;;;;;;;11.40;99.90;;;;;;5038041;28;19921;-81
2023/04/12 10:30:18;;;;;;;;;;;12.00;99.90;;;;;;5040688;28;19920;-80
2023/04/12 10:32:44;;;;;;;;;;;12.20;99.90;;;;;;5021829;28;19966;-81
2023/04/12 10:35:10;;;;;;;;;;;12.30;99.90;;;;;;5038210;28;20012;-80
2023/04/12 10:37:54;;;;;;;;;;;12.40;99.90;;;;;;5020774;28;19917;-80
2023/04/12 10:40:20;;;;;;;;;;;12.60;99.90;;;;;;5020543;28;19928;-80
2023/04/12 10:42:45;;;;;;;;;;;12.70;99.90;;;;;;5019497;28;20003;-81
2023/04/12 10:45:17;;;;;;;;;;;12.60;99.90;;;;;;5023596;28;19960;-81
2023/04/12 10:47:48;;;;;;;;;;;12.60;99.90;;;;;;5035120;28;19927;-80
2023/04/12 10:50:24;;;;;;;;;;;12.50;99.90;;;;;;5020366;28;19936;-80
2023/04/12 10:53:09;;;;;;;;;;;12.70;99.90;;;;;;5023647;28;19920;-80
2023/04/12 10:55:35;;;;;;;;;;;12.70;99.90;;;;;;5014398;28;20388;-81
2023/04/12 10:58:00;;;;;;;;;;;12.80;99.90;;;;;;5014001;28;19931;-80
2023/04/12 11:00:46;;;;;;;;;;;12.80;99.90;;;;;;5017194;28;19925;-80
2023/04/12 11:03:12;;;;;;;;;;;12.90;99.90;;;;;;5012244;28;19940;-81
2023/04/12 11:05:57;;;;;;;;;;;13.10;99.90;;;;;;5037848;28;19999;-80
2023/04/12 11:08:23;;;;;;;;;;;13.10;99.90;;;;;;5038384;28;19916;-81
2023/04/12 11:10:49;;;;;;;;;;;13.30;99.90;;;;;;5025610;28;19921;-80
2023/04/12 11:13:15;;;;;;;;;;;13.30;99.90;;;;;;5019952;28;19931;-80
2023/04/12 11:15:40;;;;;;;;;;;13.10;99.90;;;;;;5016795;28;19925;-80
2023/04/12 11:18:06;;;;;;;;;;;13.20;99.90;;;;;;5018700;28;19951;-80
2023/04/12 11:20:33;;;;;;;;;;;13.00;99.90;;;;;;5005511;28;19935;-80
2023/04/12 11:22:59;;;;;;;;;;;13.20;99.90;;;;;;5021828;28;20011;-81
2023/04/12 11:25:25;;;;;;;;;;;13.60;99.90;;;;;;5036834;28;19920;-80
2023/04/12 11:27:52;;;;;;;;;;;13.90;99.90;;;;;;5018185;28;19931;-80
2023/04/12 11:30:18;;;;;;;;;;;14.10;99.90;;;;;;5020788;28;20375;-80
2023/04/12 11:32:44;;;;;;;;;;;14.00;99.90;;;;;;5035347;28;20401;-80
2023/04/12 11:35:10;;;;;;;;;;;13.70;99.90;;;;;;5020994;28;19927;-80
2023/04/12 11:37:36;;;;;;;;;;;14.20;99.90;;;;;;5020532;28;19928;-80
2023/04/12 11:40:04;;;;;;;;;;;14.60;99.90;;;;;;5028586;28;20655;-80
2023/04/12 11:42:30;;;;;;;;;;;14.10;99.90;;;;;;5021214;28;19996;-80
2023/04/12 11:44:55;;;;;;;;;;;13.90;99.90;;;;;;5019483;28;19921;-81
2023/04/12 11:47:22;;;;;;;;;;;13.70;99.90;;;;;;5036423;28;19954;-81
2023/04/12 11:49:49;;;;;;;;;;;13.50;99.90;;;;;;5020582;28;20246;-80
2023/04/12 11:52:15;;;;;;;;;;;13.30;99.90;;;;;;5036903;28;19929;-80
2023/04/12 11:54:50;;;;;;;;;;;13.40;99.90;;;;;;5039068;28;19929;-79
2023/04/12 11:57:16;;;;;;;;;;;13.40;99.90;;;;;;5015949;28;20019;-80
2023/04/12 11:59:46;;;;;;;;;;;13.50;99.90;;;;;;5020802;28;20274;-80
2023/04/12 12:02:12;;;;;;;;;;;14.00;99.90;;;;;;5020172;28;19924;-81
2023/04/12 12:04:38;;;;;;;;;;;14.50;99.90;;;;;;5018992;28;20271;-80
2023/04/12 12:07:05;;;;;;;;;;;14.30;99.90;;;;;;5030929;28;20011;-81
2023/04/12 12:09:31;;;;;;;;;;;14.70;99.90;;;;;;5018259;28;19925;-81
2023/04/12 12:11:57;;;;;;;;;;;15.00;99.90;;;;;;5019086;28;20538;-81
2023/04/12 12:14:23;;;;;;;;;;;14.80;99.90;;;;;;5003938;28;19916;-81
2023/04/12 12:16:55;;;;;;;;;;;15.20;99.90;;;;;;5016838;28;19920;-80
2023/04/12 12:19:31;;;;;;;;;;;15.40;99.90;;;;;;5021631;28;19936;-80
2023/04/12 12:22:06;;;;;;;;;;;15.80;99.90;;;;;;5036773;28;19920;-80
2023/04/12 12:24:33;;;;;;;;;;;16.20;99.90;;;;;;5033132;28;20373;-80
2023/04/12 12:27:02;;;;;;;;;;;16.30;99.90;;;;;;5015763;28;19921;-80
2023/04/12 12:29:33;;;;;;;;;;;16.00;99.90;;;;;;5018129;28;20027;-82
2023/04/12 12:32:00;;;;;;;;;;;15.80;99.90;;;;;;5036141;28;20487;-80
2023/04/12 12:34:30;;;;;;;;;;;15.40;99.90;;;;;;5014930;28;19932;-80
2023/04/12 12:36:56;;;;;;;;;;;16.00;99.90;;;;;;4987217;28;20617;-80
2023/04/12 12:39:21;;;;;;;;;;;16.50;99.90;;;;;;5014392;28;20012;-80
2023/04/12 12:41:52;;;;;;;;;;;16.10;99.90;;;;;;5017903;28;20416;-80
2023/04/12 12:44:17;;;;;;;;;;;16.30;99.90;;;;;;5017595;28;19966;-80
2023/04/12 12:46:43;;;;;;;;;;;16.20;99.90;;;;;;5017351;28;20313;-80
2023/04/12 12:49:08;;;;;;;;;;;16.50;99.90;;;;;;5016194;28;20362;-80
2023/04/12 12:51:34;;;;;;;;;;;16.60;99.90;;;;;;5001944;28;19927;-79
2023/04/12 12:54:00;;;;;;;;;;;16.20;99.90;;;;;;5016850;28;19928;-80
2023/04/12 12:56:25;;;;;;;;;;;15.70;99.90;;;;;;5015285;28;20456;-80
2023/04/12 12:58:51;;;;;;;;;;;15.00;99.90;;;;;;5016459;28;20390;-80
2023/04/12 13:01:16;;;;;;;;;;;14.80;99.90;;;;;;5005850;28;20842;-79
2023/04/12 13:03:42;;;;;;;;;;;14.70;99.90;;;;;;5020778;28;19992;-80
2023/04/12 13:06:08;;;;;;;;;;;14.30;99.90;;;;;;5016637;28;19921;-80
2023/04/12 13:08:35;;;;;;;;;;;14.10;99.90;;;;;;5021675;28;20076;-80
2023/04/12 13:11:00;;;;;;;;;;;14.20;99.90;;;;;;5024946;28;19970;-80
2023/04/12 13:13:26;;;;;;;;;;;14.20;99.90;;;;;;5025385;28;19924;-80
2023/04/12 13:15:51;;;;;;;;;;;14.20;99.90;;;;;;5038525;28;19921;-80
2023/04/12 13:18:18;;;;;;;;;;;13.90;99.90;;;;;;5017320;28;20434;-80
2023/04/12 13:20:44;;;;;;;;;;;13.80;99.90;;;;;;5022549;28;19929;-80
2023/04/12 13:23:10;;;;;;;;;;;13.30;99.90;;;;;;5020644;28;19921;-80
2023/04/12 13:25:36;;;;;;;;;;;12.90;99.90;;;;;;5017647;28;19921;-80
2023/04/12 13:28:01;;;;;;;;;;;12.60;99.90;;;;;;5039274;28;19924;-80
2023/04/12 13:30:27;;;;;;;;;;;12.40;99.90;;;;;;5022963;28;19920;-79
2023/04/12 13:32:52;;;;;;;;;;;12.20;99.90;;;;;;5040663;28;19927;-80
2023/04/12 13:35:18;;;;;;;;;;;11.90;99.90;;;;;;5040307;28;20014;-79
2023/04/12 13:37:44;;;;;;;;;;;12.00;99.90;;;;;;5021349;28;19964;-80
2023/04/12 13:40:09;;;;;;;;;;;11.90;99.90;;;;;;5022922;28;19920;-79
2023/04/12 13:42:35;;;;;;;;;;;11.90;99.90;;;;;;5024240;28;19966;-79
2023/04/12 13:45:01;;;;;;;;;;;12.00;99.90;;;;;;5004858;28;19931;-79
2023/04/12 13:47:26;;;;;;;;;;;11.90;99.90;;;;;;5021779;28;19948;-80
2023/04/12 13:49:53;;;;;;;;;;;11.70;99.90;;;;;;5023076;28;19978;-79
2023/04/12 13:52:19;;;;;;;;;;;11.50;99.90;;;;;;5022373;28;20474;-79
2023/04/12 13:54:45;;;;;;;;;;;11.10;99.90;;;;;;5021462;28;19920;-80
2023/04/12 13:57:10;;;;;;;;;;;10.70;99.90;;;;;;5021322;28;20253;-80
2023/04/12 13:59:36;;;;;;;;;;;10.30;99.90;;;;;;5014332;28;19927;-81
2023/04/12 14:02:01;;;;;;;;;;;10.20;99.90;;;;;;5003615;28;19916;-80
2023/04/12 14:04:28;;;;;;;;;;;10.20;99.90;;;;;;5009706;28;20309;-81
2023/04/12 14:06:53;;;;;;;;;;;10.20;99.90;;;;;;5009802;28;20433;-80
2023/04/12 14:09:26;;;;;;;;;;;10.30;99.90;;;;;;5006681;28;19921;-80
2023/04/12 14:11:54;;;;;;;;;;;10.10;99.90;;;;;;5017403;28;19925;-78
2023/04/12 14:14:19;;;;;;;;;;;10.20;99.90;;;;;;5004744;28;20361;-79
2023/04/12 14:16:45;;;;;;;;;;;10.20;99.90;;;;;;5010227;28;19974;-80
2023/04/12 14:19:10;;;;;;;;;;;10.20;99.90;;;;;;5018934;28;19951;-81
2023/04/12 14:21:36;;;;;;;;;;;10.30;99.90;;;;;;5021522;28;20019;-80
2023/04/12 14:24:02;;;;;;;;;;;10.50;99.90;;;;;;5020599;28;19921;-80